Observation data for Abernathy on 12/08/2018      Previous  Date       Current Mesonet Observations  Soil Data  Daily Summary Page  Observations in Plain Language
KARS 080600Z 04003KT M01/M01 A3028 RMK A01 T10081009  RH  100%=      5-min Rain = 0
KARS 080605Z 04004KT M01/M01 A3028 RMK A01 T10091010  RH  100%=      5-min Rain = 0
KARS 080610Z 04004KT M01/M01 A3028 RMK A01 T10091010  RH  100%=      5-min Rain = 0
KARS 080615Z 03004KT M01/M01 A3028 RMK A01 T10101011  RH  100%=      5-min Rain = 0
KARS 080620Z 04004KT M01/M01 A3027 RMK A01 T10101011  RH  100%=      5-min Rain = 0
KARS 080625Z 04004KT M01/M01 A3027 RMK A01 T10101012  RH  100%=      5-min Rain = 0
KARS 080630Z 03005KT M01/M01 A3027 RMK A01 T10101011  RH  100%=      5-min Rain = 0
KARS 080635Z 03004KT M01/M01 A3027 RMK A01 T10111012  RH  100%=      5-min Rain = 0
KARS 080640Z 03005KT M01/M01 A3026 RMK A01 T10121013  RH  100%=      5-min Rain = 0
KARS 080645Z 04004KT M01/M01 A3026 RMK A01 T10121013  RH  100%=      5-min Rain = 0
KARS 080650Z 03003KT M01/M01 A3027 RMK A01 T10121013  RH  100%=      5-min Rain = 0
KARS 080655Z 03003KT M01/M01 A3027 RMK A01 T10111013  RH  100%=      5-min Rain = 0
KARS 080700Z 03004KT M01/M01 A3027 RMK A01 T10121013  RH  100%=      5-min Rain = 0
KARS 080705Z 03004KT M01/M01 A3027 RMK A01 T10121013  RH  100%=      5-min Rain = 0
KARS 080710Z 03004KT M01/M01 A3027 RMK A01 T10121013  RH  100%=      5-min Rain = 0
KARS 080715Z 02004KT M01/M01 A3027 RMK A01 T10121013  RH  100%=      5-min Rain = 0
KARS 080720Z 02004KT M01/M01 A3027 RMK A01 T10131014  RH  100%=      5-min Rain = 0
KARS 080725Z 02004KT M01/M01 A3027 RMK A01 T10131014  RH  100%=      5-min Rain = 0
KARS 080730Z 02004KT M01/M01 A3027 RMK A01 T10131014  RH  100%=      5-min Rain = 0
KARS 080735Z 02003KT M01/M02 A3028 RMK A01 T10131015  RH  100%=      5-min Rain = 0
KARS 080740Z 02003KT M01/M02 A3028 RMK A01 T10131015  RH  100%=      5-min Rain = 0
KARS 080745Z 02003KT M01/M02 A3028 RMK A01 T10131015  RH  100%=      5-min Rain = 0
KARS 080750Z 02004KT M01/M02 A3027 RMK A01 T10141015  RH  100%=      5-min Rain = 0
KARS 080755Z 02003KT M01/M02 A3027 RMK A01 T10141015  RH  100%=      5-min Rain = 0
KARS 080800Z 02003KT M01/M02 A3027 RMK A01 T10141015  RH  100%=      5-min Rain = 0
KARS 080805Z 02003KT M01/M02 A3027 RMK A01 T10141015  RH  100%=      5-min Rain = 0
KARS 080810Z 02004KT M01/M02 A3027 RMK A01 T10141015  RH  100%=      5-min Rain = 0
KARS 080815Z 02003KT M01/M02 A3027 RMK A01 T10141015  RH  100%=      5-min Rain = 0
KARS 080820Z 02003KT M01/M02 A3027 RMK A01 T10141015  RH  100%=      5-min Rain = 0
KARS 080825Z 01003KT M01/M02 A3027 RMK A01 T10141015  RH  100%=      5-min Rain = 0
KARS 080830Z 01003KT M01/M02 A3027 RMK A01 T10131015  RH  100%=      5-min Rain = 0
KARS 080835Z 02004KT M01/M01 A3027 RMK A01 T10131014  RH  100%=      5-min Rain = 0
KARS 080840Z 02004KT M01/M01 A3026 RMK A01 T10131014  RH  100%=      5-min Rain = 0
KARS 080845Z 02003KT M01/M01 A3026 RMK A01 T10131014  RH  100%=      5-min Rain = 0
KARS 080850Z 02003KT M01/M01 A3026 RMK A01 T10131014  RH  100%=      5-min Rain = 0
KARS 080855Z 02003KT M01/M01 A3026 RMK A01 T10131014  RH  100%=      5-min Rain = 0
KARS 080900Z 02003KT M01/M01 A3026 RMK A01 T10131014  RH  100%=      5-min Rain = 0
KARS 080905Z 02003KT M01/M01 A3026 RMK A01 T10131014  RH  100%=      5-min Rain = 0
KARS 080910Z 02003KT M01/M01 A3026 RMK A01 T10131014  RH  100%=      5-min Rain = 0
KARS 080915Z 03004KT M01/M01 A3026 RMK A01 T10121014  RH  100%=      5-min Rain = 0
KARS 080920Z 02004KT M01/M01 A3025 RMK A01 T10131014  RH  100%=      5-min Rain = 0
KARS 080925Z 02003KT M01/M01 A3025 RMK A01 T10131014  RH  100%=      5-min Rain = 0
KARS 080930Z 02003KT M01/M01 A3025 RMK A01 T10131014  RH  100%=      5-min Rain = 0
KARS 080935Z 02003KT M01/M01 A3025 RMK A01 T10121014  RH  100%=      5-min Rain = 0
KARS 080940Z 02003KT M01/M01 A3025 RMK A01 T10121013  RH  100%=      5-min Rain = 0
KARS 080945Z 02004KT M01/M01 A3025 RMK A01 T10121013  RH  100%=      5-min Rain = 0
KARS 080950Z 02004KT M01/M01 A3024 RMK A01 T10121013  RH  100%=      5-min Rain = 0
KARS 080955Z 02004KT M01/M01 A3024 RMK A01 T10121013  RH  100%=      5-min Rain = 0
KARS 081000Z 02004KT M01/M01 A3024 RMK A01 T10121013  RH  100%=      5-min Rain = 0
KARS 081005Z 02003KT M01/M01 A3024 RMK A01 T10121013  RH  100%=      5-min Rain = 0
KARS 081010Z 02004KT M01/M01 A3024 RMK A01 T10121013  RH  100%=      5-min Rain = 0
KARS 081015Z 02004KT M01/M01 A3024 RMK A01 T10121013  RH  100%=      5-min Rain = 0
KARS 081020Z 02003KT M01/M01 A3024 RMK A01 T10121013  RH  100%=      5-min Rain = 0
KARS 081025Z 02004KT M01/M01 A3024 RMK A01 T10121013  RH  100%=      5-min Rain = 0
KARS 081030Z 02004KT M01/M01 A3024 RMK A01 T10121014  RH  100%=      5-min Rain = 0
KARS 081035Z 03003KT M01/M01 A3024 RMK A01 T10131014  RH  100%=      5-min Rain = 0
KARS 081040Z 02003KT M01/M01 A3024 RMK A01 T10131014  RH  100%=      5-min Rain = 0
KARS 081045Z 02004KT M01/M01 A3024 RMK A01 T10131014  RH  100%=      5-min Rain = 0
KARS 081050Z 02004KT M01/M01 A3024 RMK A01 T10131014  RH  100%=      5-min Rain = 0
KARS 081055Z 02004KT M01/M01 A3024 RMK A01 T10131014  RH  100%=      5-min Rain = 0
KARS 081100Z 02004KT M01/M02 A3024 RMK A01 T10131015  RH  100%=      5-min Rain = 0
KARS 081105Z 02004KT M01/M02 A3024 RMK A01 T10141015  RH  100%=      5-min Rain = 0
KARS 081110Z 02004KT M01/M02 A3024 RMK A01 T10141015  RH  100%=      5-min Rain = 0
KARS 081115Z 03004KT M01/M02 A3024 RMK A01 T10141015  RH  100%=      5-min Rain = 0
KARS 081120Z 02004KT M01/M02 A3024 RMK A01 T10141015  RH  100%=      5-min Rain = 0
KARS 081125Z 02004KT M01/M02 A3024 RMK A01 T10141015  RH  100%=      5-min Rain = 0
KARS 081130Z 02004KT M01/M02 A3024 RMK A01 T10141015  RH  100%=      5-min Rain = 0
KARS 081135Z 02004KT M01/M02 A3024 RMK A01 T10141015  RH  100%=      5-min Rain = 0
KARS 081140Z 02004KT M01/M02 A3024 RMK A01 T10141015  RH  100%=      5-min Rain = 0
KARS 081145Z 02004KT M01/M02 A3024 RMK A01 T10141015  RH  100%=      5-min Rain = 0
KARS 081150Z 02004KT M01/M02 A3025 RMK A01 T10141015  RH  100%=      5-min Rain = 0
KARS 081155Z 02005KT M01/M02 A3025 RMK A01 T10141015  RH  100%=      5-min Rain = 0
KARS 081200Z 02004KT M01/M02 A3025 RMK A01 T10141016  RH  100%=      5-min Rain = 0
KARS 081205Z 02004KT M01/M02 A3025 RMK A01 T10141016  RH  100%=      5-min Rain = 0
KARS 081210Z 02003KT M01/M02 A3025 RMK A01 T10141016  RH  100%=      5-min Rain = 0
KARS 081215Z 02003KT M01/M02 A3026 RMK A01 T10141016  RH  100%=      5-min Rain = 0
KARS 081220Z 02004KT M01/M02 A3026 RMK A01 T10141016  RH  100%=      5-min Rain = 0
KARS 081225Z 02003KT M02/M02 A3026 RMK A01 T10151016  RH  100%=      5-min Rain = 0
KARS 081230Z 02003KT M02/M02 A3026 RMK A01 T10151016  RH  100%=      5-min Rain = 0
KARS 081235Z 02003KT M02/M02 A3026 RMK A01 T10151016  RH  100%=      5-min Rain = 0
KARS 081240Z 02003KT M02/M02 A3027 RMK A01 T10151016  RH  100%=      5-min Rain = 0
KARS 081245Z 02003KT M02/M02 A3027 RMK A01 T10151016  RH  100%=      5-min Rain = 0
KARS 081250Z 02003KT M02/M02 A3027 RMK A01 T10151016  RH  100%=      5-min Rain = 0
KARS 081255Z 02002KT M02/M02 A3027 RMK A01 T10151016  RH  100%=      5-min Rain = 0
KARS 081300Z 02003KT M02/M02 A3027 RMK A01 T10151016  RH  100%=      5-min Rain = 0
KARS 081305Z 02003KT M02/M02 A3027 RMK A01 T10161017  RH  100%=      5-min Rain = 0
KARS 081310Z 02003KT M02/M02 A3028 RMK A01 T10161017  RH  100%=      5-min Rain = 0
KARS 081315Z 02003KT M02/M02 A3028 RMK A01 T10161018  RH  100%=      5-min Rain = 0
KARS 081320Z 02003KT M02/M02 A3028 RMK A01 T10171018  RH  100%=      5-min Rain = 0
KARS 081325Z 02003KT M02/M02 A3028 RMK A01 T10171018  RH  100%=      5-min Rain = 0
KARS 081330Z 03002KT M02/M02 A3028 RMK A01 T10171018  RH  100%=      5-min Rain = 0
KARS 081335Z 03002KT M02/M02 A3028 RMK A01 T10171018  RH  100%=      5-min Rain = 0
KARS 081340Z 04003KT M02/M02 A3029 RMK A01 T10171018  RH  100%=      5-min Rain = 0
KARS 081345Z 03003KT M02/M02 A3029 RMK A01 T10171018  RH  100%=      5-min Rain = 0
KARS 081350Z 03003KT M02/M02 A3029 RMK A01 T10181019  RH  100%=      5-min Rain = 0
KARS 081355Z 03003KT M02/M02 A3029 RMK A01 T10181019  RH  100%=      5-min Rain = 0
KARS 081400Z 03003KT M02/M02 A3029 RMK A01 T10181019  RH  100%=      5-min Rain = 0
KARS 081405Z 02003KT M02/M02 A3029 RMK A01 T10181019  RH  100%=      5-min Rain = 0
KARS 081410Z 03003KT M02/M02 A3029 RMK A01 T10181019  RH  100%=      5-min Rain = 0
KARS 081415Z 02003KT M02/M02 A303 RMK A01 T10181019  RH  100%=      5-min Rain = 0
KARS 081420Z 02003KT M02/M02 A303 RMK A01 T10181019  RH  100%=      5-min Rain = 0
KARS 081425Z 02002KT M02/M02 A303 RMK A01 T10181019  RH  100%=      5-min Rain = 0
KARS 081430Z 02002KT M02/M02 A303 RMK A01 T10181019  RH  100%=      5-min Rain = 0
KARS 081435Z 02002KT M02/M02 A303 RMK A01 T10181019  RH  100%=      5-min Rain = 0
KARS 081440Z 01002KT M02/M02 A303 RMK A01 T10181019  RH  100%=      5-min Rain = 0
KARS 081445Z 01002KT M02/M02 A303 RMK A01 T10181019  RH  100%=      5-min Rain = 0
KARS 081450Z 01002KT M02/M02 A3031 RMK A01 T10171018  RH  100%=      5-min Rain = 0
KARS 081455Z 01002KT M02/M02 A3031 RMK A01 T10171018  RH  100%=      5-min Rain = 0
KARS 081500Z 01002KT M02/M02 A3031 RMK A01 T10161018  RH  100%=      5-min Rain = 0
KARS 081505Z 36002KT M02/M02 A3031 RMK A01 T10161017  RH  100%=      5-min Rain = 0
KARS 081510Z 36002KT M02/M02 A3031 RMK A01 T10151016  RH  100%=      5-min Rain = 0
KARS 081515Z 00002KT M01/M02 A3031 RMK A01 T10141016  RH  100%=      5-min Rain = 0
KARS 081520Z 00003KT M01/M02 A3031 RMK A01 T10141015  RH  100%=      5-min Rain = 0
KARS 081525Z 00003KT M01/M02 A3031 RMK A01 T10131015  RH  100%=      5-min Rain = 0
KARS 081530Z 36003KT M01/M01 A3031 RMK A01 T10131014  RH  100%=      5-min Rain = 0
KARS 081535Z 35003KT M01/M01 A3032 RMK A01 T10131014  RH  100%=      5-min Rain = 0
KARS 081540Z 36003KT M01/M01 A3032 RMK A01 T10131014  RH  100%=      5-min Rain = 0
KARS 081545Z 35003KT M01/M01 A3032 RMK A01 T10121013  RH  100%=      5-min Rain = 0
KARS 081550Z 36003KT M01/M01 A3032 RMK A01 T10121013  RH  100%=      5-min Rain = 0
KARS 081555Z 36003KT M01/M01 A3032 RMK A01 T10111012  RH  100%=      5-min Rain = 0
KARS 081600Z 36003KT M01/M01 A3032 RMK A01 T10111012  RH  100%=      5-min Rain = 0
KARS 081605Z 00003KT M01/M01 A3032 RMK A01 T10101012  RH  100%=      5-min Rain = 0
KARS 081610Z 36004KT M01/M01 A3032 RMK A01 T10101011  RH  100%=      5-min Rain = 0
KARS 081615Z 36003KT M01/M01 A3032 RMK A01 T10101011  RH  100%=      5-min Rain = 0
KARS 081620Z 36004KT M01/M01 A3032 RMK A01 T10091011  RH  100%=      5-min Rain = 0
KARS 081625Z 00003KT M01/M01 A3032 RMK A01 T10091010  RH  100%=      5-min Rain = 0
KARS 081630Z 00004KT M01/M01 A3032 RMK A01 T10081010  RH  100%=      5-min Rain = 0
KARS 081635Z 00004KT M01/M01 A3032 RMK A01 T10081009  RH  100%=      5-min Rain = 0
KARS 081640Z 00004KT M01/M01 A3032 RMK A01 T10071009  RH  100%=      5-min Rain = 0
KARS 081645Z 01003KT M01/M01 A3032 RMK A01 T10061008  RH  100%=      5-min Rain = 0
KARS 081650Z 00004KT M01/M01 A3032 RMK A01 T10061007  RH  100%=      5-min Rain = 0
KARS 081655Z 00004KT M01/M01 A3032 RMK A01 T10051007  RH  100%=      5-min Rain = 0
KARS 081700Z 00003KT M01/M01 A3032 RMK A01 T10051006  RH  100%=      5-min Rain = 0
KARS 081705Z 00003KT M01/M01 A3032 RMK A01 T10051006  RH  100%=      5-min Rain = 0
KARS 081710Z 00003KT M00/M01 A3032 RMK A01 T10041006  RH  100%=      5-min Rain = 0
KARS 081715Z 00004KT M00/M01 A3032 RMK A01 T10041005  RH  100%=      5-min Rain = 0
KARS 081720Z 00004KT M00/M01 A3032 RMK A01 T10041005  RH  100%=      5-min Rain = 0
KARS 081725Z 00007KT M00/M01 A3032 RMK A01 T10031005  RH  100%=      5-min Rain = 0
KARS 081730Z 00007KT M00/M00 A3032 RMK A01 T10031004  RH  100%=      5-min Rain = 0
KARS 081735Z 00008KT M00/M00 A3032 RMK A01 T10031004  RH  100%=      5-min Rain = 0
KARS 081740Z 01008KT M00/M00 A3032 RMK A01 T10021004  RH  100%=      5-min Rain = 0
KARS 081745Z 01008KT M00/M00 A3031 RMK A01 T10021004  RH  100%=      5-min Rain = 0
KARS 081750Z 01009KT M00/M00 A3031 RMK A01 T10021004  RH  100%=      5-min Rain = 0
KARS 081755Z 01008KT M00/M00 A3031 RMK A01 T10021004  RH  100%=      5-min Rain = 0
KARS 081800Z 01009KT M00/M00 A3031 RMK A01 T10021003  RH  100%=      5-min Rain = 0
KARS 081805Z 01008KT M00/M00 A3031 RMK A01 T10021003  RH  100%=      5-min Rain = 0
KARS 081810Z 01008KT M00/M00 A3031 RMK A01 T10021003  RH  100%=      5-min Rain = 0
KARS 081815Z 00008KT M00/M00 A3031 RMK A01 T10021003  RH  100%=      5-min Rain = 0
KARS 081820Z 01007KT M00/M00 A303 RMK A01 T10021003  RH  100%=      5-min Rain = 0
KARS 081825Z 01008KT M00/M00 A303 RMK A01 T10021003  RH  100%=      5-min Rain = 0.01
KARS 081830Z 01007KT M00/M00 A303 RMK A01 T10011003  RH  100%=      5-min Rain = 0
KARS 081835Z 01007KT M00/M00 A303 RMK A01 T10011003  RH  100%=      5-min Rain = 0
KARS 081840Z 01007KT M00/M00 A3029 RMK A01 T10011003  RH  100%=      5-min Rain = 0
KARS 081845Z 01007KT M00/M00 A3029 RMK A01 T10011003  RH  100%=      5-min Rain = 0.01
KARS 081850Z 01007KT M00/M00 A3029 RMK A01 T10011003  RH  100%=      5-min Rain = 0
KARS 081855Z 01008KT M00/M00 A3028 RMK A01 T10011003  RH  100%=      5-min Rain = 0
KARS 081900Z 01007KT M00/M00 A3028 RMK A01 T10011003  RH  100%=      5-min Rain = 0.01
KARS 081905Z 01007KT M00/M00 A3028 RMK A01 T10011003  RH  100%=      5-min Rain = 0.01
KARS 081910Z 01006KT M00/M00 A3028 RMK A01 T10011002  RH  100%=      5-min Rain = 0
KARS 081915Z 01007KT M00/M00 A3028 RMK A01 T10011002  RH  100%=      5-min Rain = 0.01
KARS 081920Z 00008KT M00/M00 A3028 RMK A01 T10011003  RH  100%=      5-min Rain = 0.01
KARS 081925Z 00007KT M00/M00 A3028 RMK A01 T10011003  RH  100%=      5-min Rain = 0.02
KARS 081930Z 01008KT M00/M00 A3027 RMK A01 T10011003  RH  100%=      5-min Rain = 0.02
KARS 081935Z 00008KT M00/M00 A3027 RMK A01 T10011003  RH  100%=      5-min Rain = 0.03
KARS 081940Z 00008KT M00/M00 A3027 RMK A01 T10011003  RH  100%=      5-min Rain = 0.04
KARS 081945Z 01007KT M00/M00 A3027 RMK A01 T10021003  RH  100%=      5-min Rain = 0.03
KARS 081950Z 01007KT M00/M00 A3027 RMK A01 T10011003  RH  100%=      5-min Rain = 0.02
KARS 081955Z 36006KT M00/M00 A3027 RMK A01 T10021003  RH  100%=      5-min Rain = 0.03
KARS 082000Z 00008KT M00/M00 A3027 RMK A01 T10021004  RH  100%=      5-min Rain = 0.02
KARS 082005Z 36007KT M00/M00 A3027 RMK A01 T10021004  RH  100%=      5-min Rain = 0.01
KARS 082010Z 00006KT M00/M00 A3026 RMK A01 T10031004  RH  100%=      5-min Rain = 0.02
KARS 082015Z 00006KT M00/M00 A3026 RMK A01 T10031004  RH  100%=      5-min Rain = 0.02
KARS 082020Z 36007KT M00/M00 A3026 RMK A01 T10021004  RH  100%=      5-min Rain = 0.01
KARS 082025Z 36006KT M00/M00 A3026 RMK A01 T10031004  RH  100%=      5-min Rain = 0.02
KARS 082030Z 36006KT M00/M00 A3026 RMK A01 T10021004  RH  100%=      5-min Rain = 0.02
KARS 082035Z 00005KT M00/M00 A3026 RMK A01 T10021003  RH  100%=      5-min Rain = 0.01
KARS 082040Z 35005KT M00/M00 A3026 RMK A01 T10021003  RH  100%=      5-min Rain = 0.02
KARS 082045Z 35006KT M00/M00 A3026 RMK A01 T10021004  RH  100%=      5-min Rain = 0.01
KARS 082050Z 34005KT M00/M00 A3025 RMK A01 T10021004  RH  100%=      5-min Rain = 0.02
KARS 082055Z 34005KT M00/M00 A3025 RMK A01 T10021004  RH  100%=      5-min Rain = 0.01
KARS 082100Z 36004KT M00/M00 A3025 RMK A01 T10021003  RH  100%=      5-min Rain = 0.02
KARS 082105Z 35005KT M00/M00 A3025 RMK A01 T10011003  RH  100%=      5-min Rain = 0.02
KARS 082110Z 35005KT M00/M00 A3025 RMK A01 T10011002  RH  100%=      5-min Rain = 0.01
KARS 082115Z 00005KT 00/00 A3025 RMK A01 T00-000-2  RH  100%=      5-min Rain = 0.01
KARS 082120Z 36006KT M00/M00 A3025 RMK A01 T10011002  RH  100%=      5-min Rain = 0.01
KARS 082125Z 35005KT M00/M00 A3025 RMK A01 T10011002  RH  100%=      5-min Rain = 0
KARS 082130Z 35006KT M00/M00 A3025 RMK A01 T10011002  RH  100%=      5-min Rain = 0.01
KARS 082135Z 35006KT M00/M00 A3025 RMK A01 T10011003  RH  100%=      5-min Rain = 0.01
KARS 082140Z 35005KT M00/M00 A3025 RMK A01 T10011003  RH  100%=      5-min Rain = 0
KARS 082145Z 36004KT M00/M00 A3025 RMK A01 T10011003  RH  100%=      5-min Rain = 0.01
KARS 082150Z 00005KT M00/M00 A3025 RMK A01 T10011002  RH  100%=      5-min Rain = 0
KARS 082155Z 36006KT M00/M00 A3025 RMK A01 T10011003  RH  100%=      5-min Rain = 0.01
KARS 082200Z 36006KT M00/M00 A3025 RMK A01 T10021003  RH  100%=      5-min Rain = 0
KARS 082205Z 00005KT M00/M00 A3025 RMK A01 T10021003  RH  100%=      5-min Rain = 0
KARS 082210Z 00006KT M00/M00 A3025 RMK A01 T10021004  RH  100%=      5-min Rain = 0.01
KARS 082215Z 36005KT M00/M00 A3025 RMK A01 T10021004  RH  100%=      5-min Rain = 0
KARS 082220Z 00005KT M00/M00 A3025 RMK A01 T10021004  RH  100%=      5-min Rain = 0
KARS 082225Z 01004KT M00/M00 A3025 RMK A01 T10011003  RH  100%=      5-min Rain = 0.01
KARS 082230Z 01003KT 00/00 A3025 RMK A01 T00-000-2  RH  100%=      5-min Rain = 0
KARS 082235Z 00003KT 00/00 A3025 RMK A01 T000000-1  RH  100%=      5-min Rain = 0
KARS 082240Z 36002KT 00/M00 A3025 RMK A01 T00011001  RH  100%=      5-min Rain = 0.01
KARS 082245Z 35002KT 00/00 A3025 RMK A01 T000100-0  RH  100%=      5-min Rain = 0
KARS 082250Z 35002KT 00/00 A3025 RMK A01 T00020000  RH  100%=      5-min Rain = 0
KARS 082255Z 34001KT 00/00 A3025 RMK A01 T00020000  RH  100%=      5-min Rain = 0
KARS 082300Z 32002KT 00/00 A3025 RMK A01 T00020000  RH  100%=      5-min Rain = 0
KARS 082305Z 34002KT 00/00 A3025 RMK A01 T000100-0  RH  100%=      5-min Rain = 0.01
KARS 082310Z 36001KT 00/00 A3025 RMK A01 T000100-0  RH  100%=      5-min Rain = 0
KARS 082315Z 00001KT 00/M00 A3025 RMK A01 T00011001  RH  100%=      5-min Rain = 0
KARS 082320Z 00001KT 00/M00 A3025 RMK A01 T00011001  RH  100%=      5-min Rain = 0
KARS 082325Z 01001KT 00/00 A3025 RMK A01 T00-000-2  RH  100%=      5-min Rain = 0
KARS 082330Z 03001KT M00/M00 A3025 RMK A01 T10021003  RH  100%=      5-min Rain = 0
KARS 082335Z 04002KT M00/M00 A3025 RMK A01 T10031004  RH  100%=      5-min Rain = 0
KARS 082340Z 04002KT M01/M01 A3025 RMK A01 T10051007  RH  100%=      5-min Rain = 0
KARS 082345Z 05001KT M01/M01 A3025 RMK A01 T10071009  RH  100%=      5-min Rain = 0
KARS 082350Z 05001KT M01/M01 A3025 RMK A01 T10081009  RH  100%=      5-min Rain = 0
KARS 082355Z 08001KT M01/M01 A3025 RMK A01 T10101011  RH  100%=      5-min Rain = 0
KARS 090000Z 10001KT M01/M01 A3025 RMK A01 T10121013  RH  100%=      5-min Rain = 0
KARS 090005Z 11002KT M01/M02 A3025 RMK A01 T10141015  RH  100%=      5-min Rain = 0
KARS 090010Z 11002KT M02/M02 A3025 RMK A01 T10161017  RH  100%=      5-min Rain = 0
KARS 090015Z 11002KT M02/M02 A3025 RMK A01 T10211022  RH  100%=      5-min Rain = 0
KARS 090020Z 11002KT M03/M03 A3026 RMK A01 T10261027  RH  100%=      5-min Rain = 0
KARS 090025Z 11001KT M03/M03 A3026 RMK A01 T10281029  RH  100%=      5-min Rain = 0
KARS 090030Z 11001KT M03/M03 A3027 RMK A01 T10291030  RH  100%=      5-min Rain = 0
KARS 090035Z 11000KT M03/M03 A3027 RMK A01 T10311032  RH  100%=      5-min Rain = 0
KARS 090040Z 16001KT M03/M03 A3027 RMK A01 T10331034  RH  100%=      5-min Rain = 0
KARS 090045Z 17001KT M04/M04 A3027 RMK A01 T10361037  RH  100%=      5-min Rain = 0
KARS 090050Z 16002KT M04/M04 A3027 RMK A01 T10371037  RH  100%=      5-min Rain = 0
KARS 090055Z 15002KT M04/M04 A3027 RMK A01 T10391040  RH  100%=      5-min Rain = 0
KARS 090100Z 15002KT M04/M05 A3027 RMK A01 T10441045  RH  100%=      5-min Rain = 0
KARS 090105Z 14002KT M05/M05 A3027 RMK A01 T10461047  RH  100%=      5-min Rain = 0
KARS 090110Z 13002KT M05/M05 A3027 RMK A01 T10491049  RH  100%=      5-min Rain = 0
KARS 090115Z 12001KT M05/M05 A3027 RMK A01 T10501051  RH  100%=      5-min Rain = 0
KARS 090120Z 13001KT M05/M05 A3027 RMK A01 T10521052  RH  100%=      5-min Rain = 0
KARS 090125Z 13001KT M05/M05 A3027 RMK A01 T10541054  RH  100%=      5-min Rain = 0
KARS 090130Z 11001KT M06/M06 A3027 RMK A01 T10571057  RH  100%=      5-min Rain = 0
KARS 090135Z 10002KT M06/M06 A3027 RMK A01 T10601060  RH  100%=      5-min Rain = 0
KARS 090140Z 10001KT M06/M06 A3028 RMK A01 T10631063  RH  100%=      5-min Rain = 0
KARS 090145Z 15001KT M07/M07 A3028 RMK A01 T10651065  RH  100%=      5-min Rain = 0
KARS 090150Z 15001KT M07/M07 A3028 RMK A01 T10661066  RH  100%=      5-min Rain = 0
KARS 090155Z 20001KT M07/M07 A3028 RMK A01 T10661067  RH  100%=      5-min Rain = 0
KARS 090200Z 22000KT M07/M07 A3028 RMK A01 T10721073  RH  100%=      5-min Rain = 0
KARS 090205Z 22001KT M08/M08 A3028 RMK A01 T10761076  RH  100%=      5-min Rain = 0
KARS 090210Z 22002KT M08/M08 A3028 RMK A01 T10791079  RH  100%=      5-min Rain = 0
KARS 090215Z 23003KT M08/M08 A3028 RMK A01 T10811082  RH  100%=      5-min Rain = 0
KARS 090220Z 24003KT M08/M08 A3028 RMK A01 T10801080  RH  100%=      5-min Rain = 0
KARS 090225Z 24003KT M08/M08 A3028 RMK A01 T10801080  RH  100%=      5-min Rain = 0
KARS 090230Z 24004KT M08/M08 A3028 RMK A01 T10791079  RH  100%=      5-min Rain = 0
KARS 090235Z 23004KT M08/M08 A3028 RMK A01 T10761076  RH  100%=      5-min Rain = 0
KARS 090240Z 24003KT M08/M08 A3028 RMK A01 T10761076  RH  100%=      5-min Rain = 0
KARS 090245Z 25003KT M08/M08 A3028 RMK A01 T10761076  RH  100%=      5-min Rain = 0
KARS 090250Z 25002KT M08/M08 A3028 RMK A01 T10771077  RH  100%=      5-min Rain = 0
KARS 090255Z 25003KT M08/M08 A3028 RMK A01 T10761076  RH  100%=      5-min Rain = 0
KARS 090300Z 26003KT M08/M08 A3028 RMK A01 T10771077  RH  100%=      5-min Rain = 0
KARS 090305Z 27003KT M08/M08 A3028 RMK A01 T10771077  RH  100%=      5-min Rain = 0
KARS 090310Z 27003KT M08/M08 A3028 RMK A01 T10791079  RH  100%=      5-min Rain = 0
KARS 090315Z 27004KT M08/M08 A3028 RMK A01 T10831084  RH  099%=      5-min Rain = 0
KARS 090320Z 27004KT M08/M08 A3028 RMK A01 T10841084  RH  100%=      5-min Rain = 0
KARS 090325Z 27005KT M08/M08 A3029 RMK A01 T10811081  RH  100%=      5-min Rain = 0
KARS 090330Z 27004KT M08/M08 A3029 RMK A01 T10801080  RH  100%=      5-min Rain = 0
KARS 090335Z 28004KT M08/M08 A3029 RMK A01 T10821083  RH  099%=      5-min Rain = 0
KARS 090340Z 28003KT M09/M09 A3029 RMK A01 T10871088  RH  099%=      5-min Rain = 0
KARS 090345Z 26003KT M09/M09 A303 RMK A01 T10911092  RH  099%=      5-min Rain = 0
KARS 090350Z 07001KT M10/M10 A303 RMK A01 T10951097  RH  098%=      5-min Rain = 0
KARS 090355Z 03001KT M10/M10 A303 RMK A01 T10991100  RH  098%=      5-min Rain = 0
KARS 090400Z 21000KT M10/M10 A303 RMK A01 T11011103  RH  098%=      5-min Rain = 0
KARS 090405Z 24000KT M10/M10 A303 RMK A01 T11021104  RH  098%=      5-min Rain = 0
KARS 090410Z 24000KT M10/M10 A303 RMK A01 T11031104  RH  098%=      5-min Rain = 0
KARS 090415Z 00000KT M10/M10 A303 RMK A01 T11031104  RH  098%=      5-min Rain = 0
KARS 090420Z 00000KT M10/M10 A303 RMK A01 T11021104  RH  098%=      5-min Rain = 0
KARS 090425Z 24000KT M10/M10 A3031 RMK A01 T11021104  RH  098%=      5-min Rain = 0
KARS 090430Z 26002KT M10/M10 A3031 RMK A01 T11021104  RH  098%=      5-min Rain = 0
KARS 090435Z 26002KT M10/M10 A3031 RMK A01 T11021104  RH  098%=      5-min Rain = 0
KARS 090440Z 27003KT M10/M10 A3031 RMK A01 T11021104  RH  098%=      5-min Rain = 0
KARS 090445Z 27001KT M10/M10 A3031 RMK A01 T11031104  RH  098%=      5-min Rain = 0
KARS 090450Z 28002KT M10/M11 A3031 RMK A01 T11041105  RH  098%=      5-min Rain = 0
KARS 090455Z 29002KT M10/M11 A3031 RMK A01 T11041105  RH  098%=      5-min Rain = 0
KARS 090500Z 28003KT M10/M11 A3031 RMK A01 T11041106  RH  098%=      5-min Rain = 0
KARS 090505Z 29004KT M10/M11 A3031 RMK A01 T11041105  RH  098%=      5-min Rain = 0
KARS 090510Z 28005KT M10/M11 A3031 RMK A01 T11041106  RH  098%=      5-min Rain = 0
KARS 090515Z 28006KT M11/M11 A3031 RMK A01 T11051108  RH  098%=      5-min Rain = 0
KARS 090520Z 28007KT M11/M11 A3031 RMK A01 T11051107  RH  098%=      5-min Rain = 0
KARS 090525Z 28007KT M10/M10 A3032 RMK A01 T11001100  RH  099%=      5-min Rain = 0
KARS 090530Z 29007KT M10/M10 A3031 RMK A01 T10951096  RH  100%=      5-min Rain = 0
KARS 090535Z 28006KT M09/M09 A3031 RMK A01 T10911091  RH  100%=      5-min Rain = 0
KARS 090540Z 28007KT M09/M09 A3031 RMK A01 T10901090  RH  100%=      5-min Rain = 0
KARS 090545Z 28008KT M09/M09 A3031 RMK A01 T10891090  RH  099%=      5-min Rain = 0
KARS 090550Z 28007KT M09/M09 A3031 RMK A01 T10911092  RH  099%=      5-min Rain = 0
KARS 090555Z 28006KT M09/M09 A3031 RMK A01 T10921093  RH  099%=      5-min Rain = 0

Page generated in 0.0094 seconds.